createdAt,value
2023-01-26T00:02:01.968Z,18.73
2023-01-26T00:04:29.387Z,18.10
2023-01-26T00:06:56.708Z,17.30
2023-01-26T00:09:23.965Z,18.80
2023-01-26T00:11:51.500Z,18.75
2023-01-26T00:14:18.953Z,17.00
2023-01-26T00:16:46.267Z,19.77
2023-01-26T00:19:13.469Z,20.00
2023-01-26T00:21:40.755Z,20.60
2023-01-26T00:24:08.245Z,23.23
2023-01-26T00:26:35.540Z,22.08
2023-01-26T00:29:02.741Z,21.83
2023-01-26T00:31:30.177Z,22.17
2023-01-26T00:33:57.442Z,19.42
2023-01-26T00:36:24.786Z,20.48
2023-01-26T00:38:52.268Z,21.00
2023-01-26T00:41:37.945Z,22.55
2023-01-26T00:44:05.493Z,23.30
2023-01-26T00:46:32.929Z,22.15
2023-01-26T00:49:01.048Z,22.35
2023-01-26T00:51:28.420Z,20.90
2023-01-26T00:53:55.807Z,19.98
2023-01-26T00:56:23.105Z,19.77
2023-01-26T00:59:04.136Z,21.77
2023-01-26T01:01:31.395Z,22.52
2023-01-26T01:03:59.066Z,23.08
2023-01-26T01:06:26.506Z,23.40
2023-01-26T01:08:53.756Z,24.35
2023-01-26T01:11:21.065Z,20.90
2023-01-26T01:13:48.328Z,22.95
2023-01-26T01:16:28.651Z,23.75
2023-01-26T01:18:56.896Z,23.10
2023-01-26T01:21:25.882Z,22.25
2023-01-26T01:23:53.196Z,23.38
2023-01-26T01:26:20.596Z,22.30
2023-01-26T01:28:47.879Z,21.40
2023-01-26T01:31:16.438Z,23.27
2023-01-26T01:33:44.250Z,21.15
2023-01-26T01:36:14.072Z,21.80
2023-01-26T01:38:41.917Z,21.08
2023-01-26T01:41:09.831Z,18.92
2023-01-26T01:43:37.819Z,20.67
2023-01-26T01:46:32.722Z,20.13
2023-01-26T01:49:20.938Z,20.65
2023-01-26T01:52:29.837Z,19.92
2023-01-26T01:55:07.492Z,20.23
2023-01-26T01:57:47.689Z,21.75
2023-01-26T02:00:18.708Z,21.58
2023-01-26T02:03:08.892Z,20.80
2023-01-26T02:05:47.625Z,21.40
2023-01-26T02:08:16.327Z,21.70
2023-01-26T02:10:46.688Z,21.80
2023-01-26T02:13:14.385Z,21.00
2023-01-26T02:15:41.742Z,21.60
2023-01-26T02:18:11.468Z,21.17
2023-01-26T02:20:52.191Z,20.92
2023-01-26T02:23:57.538Z,19.63
2023-01-26T02:26:26.671Z,19.75
2023-01-26T02:28:54.510Z,19.52
2023-01-26T02:31:23.568Z,18.67
2023-01-26T02:33:50.987Z,18.75
2023-01-26T02:36:27.201Z,19.73
2023-01-26T02:39:16.094Z,18.77
2023-01-26T02:42:02.414Z,19.42
2023-01-26T02:44:31.015Z,18.13
2023-01-26T02:46:58.396Z,18.30
2023-01-26T02:49:44.149Z,17.83
2023-01-26T02:52:11.419Z,16.77
2023-01-26T02:54:57.246Z,17.60
2023-01-26T02:57:24.510Z,17.00
2023-01-26T02:59:51.751Z,16.90
2023-01-26T03:02:20.232Z,15.23
2023-01-26T03:04:47.609Z,14.90
2023-01-26T03:07:14.991Z,15.25
2023-01-26T03:09:42.232Z,14.38
2023-01-26T03:12:09.518Z,15.73
2023-01-26T03:14:36.751Z,14.10
2023-01-26T03:17:04.026Z,15.40
2023-01-26T03:19:49.830Z,13.65
2023-01-26T03:22:35.700Z,13.52
2023-01-26T03:25:21.401Z,13.90
2023-01-26T03:27:49.319Z,13.30
2023-01-26T03:30:19.130Z,13.65
2023-01-26T03:32:46.411Z,12.77
2023-01-26T03:35:15.559Z,14.13
2023-01-26T03:37:45.837Z,12.00
2023-01-26T03:40:32.037Z,11.98
2023-01-26T03:43:17.900Z,12.02
2023-01-26T03:46:03.681Z,12.38
2023-01-26T03:48:49.568Z,12.45
2023-01-26T03:51:35.320Z,11.75
2023-01-26T03:54:20.930Z,12.27
2023-01-26T03:56:48.206Z,12.57
2023-01-26T03:59:16.656Z,12.02
2023-01-26T04:02:04.590Z,12.67
2023-01-26T04:04:50.604Z,12.82
2023-01-26T04:07:36.842Z,14.05
2023-01-26T04:10:04.213Z,13.75
2023-01-26T04:12:31.452Z,13.15
2023-01-26T04:15:17.338Z,12.85
2023-01-26T04:18:02.997Z,14.35
2023-01-26T04:20:48.717Z,13.00
2023-01-26T04:23:19.814Z,13.57
2023-01-26T04:25:48.297Z,13.63
2023-01-26T04:28:15.620Z,13.07
2023-01-26T04:30:43.140Z,15.05
2023-01-26T04:33:11.579Z,14.45
2023-01-26T04:35:38.933Z,13.53
2023-01-26T04:38:06.251Z,13.18
2023-01-26T04:40:33.484Z,13.82
2023-01-26T04:43:00.734Z,12.52
2023-01-26T04:45:28.392Z,13.60
2023-01-26T04:47:55.689Z,14.05
2023-01-26T04:50:22.911Z,13.45
2023-01-26T04:52:50.142Z,14.85
2023-01-26T04:55:17.460Z,14.15
2023-01-26T04:57:44.925Z,13.05
2023-01-26T05:00:12.915Z,13.00
2023-01-26T05:02:40.573Z,13.73
2023-01-26T05:05:08.445Z,13.57
2023-01-26T05:07:35.819Z,12.98
2023-01-26T05:10:03.180Z,13.38
2023-01-26T05:12:38.233Z,13.40
2023-01-26T05:15:05.778Z,13.05
2023-01-26T05:17:33.088Z,13.88
2023-01-26T05:20:00.547Z,14.10
2023-01-26T05:22:27.849Z,14.80
2023-01-26T05:24:55.168Z,14.45
2023-01-26T05:27:22.478Z,13.32
2023-01-26T05:29:53.536Z,14.18
2023-01-26T05:32:22.172Z,14.27
2023-01-26T05:34:49.482Z,14.32
2023-01-26T05:37:16.868Z,12.88
2023-01-26T05:39:47.077Z,12.88
2023-01-26T05:42:14.712Z,12.30
2023-01-26T05:44:42.234Z,13.55
2023-01-26T05:47:09.624Z,13.90
2023-01-26T05:49:42.801Z,12.70
2023-01-26T05:52:11.498Z,12.63
2023-01-26T05:54:38.763Z,13.00
2023-01-26T05:57:06.188Z,12.98
2023-01-26T05:59:33.475Z,14.38
2023-01-26T06:02:00.922Z,13.55
2023-01-26T06:04:28.716Z,12.50
2023-01-26T06:06:57.944Z,12.45
2023-01-26T06:09:28.586Z,13.85
2023-01-26T06:11:56.415Z,12.43
2023-01-26T06:14:24.098Z,13.48
2023-01-26T06:16:54.773Z,14.40
2023-01-26T06:19:22.283Z,13.82
2023-01-26T06:21:49.700Z,13.38
2023-01-26T06:24:20.391Z,14.70
2023-01-26T06:26:51.203Z,12.50
2023-01-26T06:29:18.493Z,14.90
2023-01-26T06:31:49.256Z,12.52
2023-01-26T06:34:16.581Z,14.05
2023-01-26T06:36:43.826Z,13.43
2023-01-26T06:39:12.777Z,13.65
2023-01-26T06:41:40.516Z,13.45
2023-01-26T06:44:11.131Z,12.88
2023-01-26T06:46:38.994Z,12.18
2023-01-26T06:49:06.398Z,12.07
2023-01-26T06:51:54.746Z,13.60
2023-01-26T06:54:26.318Z,12.57
2023-01-26T06:56:53.579Z,11.43
2023-01-26T06:59:21.028Z,12.38
2023-01-26T07:01:49.057Z,12.40
2023-01-26T07:04:17.151Z,11.35
2023-01-26T07:06:44.739Z,11.77
2023-01-26T07:09:12.149Z,12.63
2023-01-26T07:11:39.509Z,13.02
2023-01-26T07:14:07.036Z,12.23
2023-01-26T07:16:34.584Z,12.60
2023-01-26T07:19:03.350Z,12.77
2023-01-26T07:21:30.732Z,11.68
2023-01-26T07:23:58.050Z,11.40
2023-01-26T07:26:28.241Z,12.02
2023-01-26T07:28:56.613Z,13.05
2023-01-26T07:31:24.198Z,11.55
2023-01-26T07:33:51.557Z,11.73
2023-01-26T07:36:18.803Z,11.63
2023-01-26T07:38:46.191Z,12.30
2023-01-26T07:41:14.183Z,12.80
2023-01-26T07:43:42.653Z,13.45
2023-01-26T07:46:13.434Z,12.33
2023-01-26T07:48:40.865Z,11.38
2023-01-26T07:51:09.397Z,11.80
2023-01-26T07:53:39.606Z,12.85
2023-01-26T07:56:12.390Z,13.10
2023-01-26T07:58:40.160Z,12.02
2023-01-26T08:01:12.601Z,11.27
2023-01-26T08:03:40.599Z,11.93
2023-01-26T08:06:11.918Z,12.57
2023-01-26T08:08:41.304Z,12.77
2023-01-26T08:11:09.219Z,11.73
2023-01-26T08:13:38.972Z,12.63
2023-01-26T08:16:10.936Z,11.55
2023-01-26T08:18:39.178Z,11.65
2023-01-26T08:21:06.615Z,11.32
2023-01-26T08:23:36.129Z,11.20
2023-01-26T08:26:05.173Z,10.82
2023-01-26T08:28:32.890Z,10.45
2023-01-26T08:31:08.394Z,11.40
2023-01-26T08:33:35.901Z,11.40
2023-01-26T08:36:08.867Z,11.65
2023-01-26T08:38:36.158Z,13.07
2023-01-26T08:41:03.953Z,12.27
2023-01-26T08:43:31.757Z,12.43
2023-01-26T08:45:59.155Z,12.98
2023-01-26T08:48:26.526Z,13.23
2023-01-26T08:51:00.808Z,12.55
2023-01-26T08:53:31.345Z,12.85
2023-01-26T08:56:01.244Z,11.45
2023-01-26T08:58:30.097Z,11.70
2023-01-26T09:00:57.522Z,11.05
2023-01-26T09:03:24.912Z,11.85
2023-01-26T09:05:52.188Z,11.68
2023-01-26T09:08:19.394Z,10.88
2023-01-26T09:10:46.653Z,10.30
2023-01-26T09:13:13.885Z,11.45
2023-01-26T09:15:41.128Z,10.32
2023-01-26T09:18:09.249Z,11.27
2023-01-26T09:20:37.791Z,11.07
2023-01-26T09:23:05.094Z,11.83
2023-01-26T09:25:32.335Z,12.15
2023-01-26T09:27:59.740Z,12.05
2023-01-26T09:30:27.190Z,11.88
2023-01-26T09:32:59.118Z,11.73
2023-01-26T09:35:27.465Z,12.13
2023-01-26T09:37:55.169Z,11.55
2023-01-26T09:41:01.400Z,12.60
2023-01-26T09:43:41.547Z,12.88
2023-01-26T09:46:28.559Z,12.48
2023-01-26T09:49:06.608Z,13.70
2023-01-26T09:51:41.260Z,12.70
2023-01-26T09:54:29.876Z,13.48
2023-01-26T09:56:57.146Z,12.75
2023-01-26T09:59:41.839Z,12.82
2023-01-26T10:02:21.089Z,12.48
2023-01-26T10:07:17.267Z,12.82
2023-01-26T10:09:47.918Z,11.88
2023-01-26T10:12:17.007Z,11.73
2023-01-26T10:14:54.291Z,11.60
2023-01-26T10:17:27.742Z,12.10
2023-01-26T10:20:14.658Z,10.40
2023-01-26T10:22:45.974Z,11.00
2023-01-26T10:25:25.449Z,11.18
2023-01-26T10:27:55.420Z,9.32
2023-01-26T10:30:23.237Z,10.32
2023-01-26T10:32:52.738Z,10.50
2023-01-26T10:35:23.258Z,9.05
2023-01-26T10:37:52.753Z,9.32
2023-01-26T10:40:20.912Z,9.82
2023-01-26T10:42:57.497Z,9.98
2023-01-26T10:45:33.139Z,9.88
2023-01-26T10:48:16.298Z,8.90
2023-01-26T10:50:44.039Z,8.32
2023-01-26T10:53:25.517Z,7.20
2023-01-26T10:56:16.892Z,9.60
2023-01-26T10:58:50.640Z,9.73
2023-01-26T11:01:22.830Z,23.80
2023-01-26T11:04:07.830Z,14.98
2023-01-26T11:06:35.685Z,8.80
2023-01-26T11:09:25.401Z,8.02
2023-01-26T11:12:02.703Z,7.50
2023-01-26T11:14:31.324Z,7.57
2023-01-26T11:17:14.088Z,7.80
2023-01-26T11:19:56.581Z,7.50
2023-01-26T11:22:38.409Z,7.35
2023-01-26T11:25:14.676Z,7.38
2023-01-26T11:28:09.114Z,8.02
2023-01-26T11:31:04.302Z,7.88
2023-01-26T11:33:43.658Z,7.25
2023-01-26T11:39:08.408Z,7.28
2023-01-26T11:42:05.668Z,8.02
2023-01-26T11:44:58.866Z,7.93
2023-01-26T11:47:55.872Z,8.48
2023-01-26T11:51:08.102Z,9.13
2023-01-26T11:53:53.754Z,9.35
2023-01-26T11:56:41.429Z,7.72
2023-01-26T11:59:25.834Z,7.85
2023-01-26T12:02:21.998Z,7.63
2023-01-26T12:04:49.337Z,7.53
2023-01-26T12:07:32.420Z,7.70
2023-01-26T12:10:02.770Z,8.05
2023-01-26T12:12:43.045Z,7.07
2023-01-26T12:15:32.831Z,7.15
2023-01-26T12:18:11.318Z,7.22
2023-01-26T12:21:15.546Z,7.17
2023-01-26T12:24:04.791Z,6.97
2023-01-26T12:29:21.654Z,7.18
2023-01-26T12:32:03.155Z,6.30
2023-01-26T12:34:33.748Z,7.38
2023-01-26T12:37:19.866Z,6.60
2023-01-26T12:40:04.168Z,7.32
2023-01-26T12:43:18.778Z,7.97
2023-01-26T12:45:48.559Z,7.63
2023-01-26T12:48:37.670Z,7.13
2023-01-26T12:51:36.859Z,7.63
2023-01-26T12:54:13.694Z,8.55
2023-01-26T12:56:50.840Z,8.13
2023-01-26T12:59:39.429Z,8.55
2023-01-26T13:02:26.306Z,8.45
2023-01-26T13:04:54.946Z,8.77
2023-01-26T13:07:48.860Z,7.93
2023-01-26T13:10:17.727Z,16.08
2023-01-26T13:12:52.864Z,12.40
2023-01-26T13:15:26.585Z,9.75
2023-01-26T13:17:55.103Z,16.80
2023-01-26T13:20:40.810Z,11.40
2023-01-26T13:23:28.677Z,13.30
2023-01-26T13:26:18.021Z,13.77
2023-01-26T13:28:47.328Z,22.00
2023-01-26T13:33:51.942Z,9.20
2023-01-26T13:36:20.472Z,9.35
2023-01-26T13:38:59.847Z,10.17
2023-01-26T13:41:27.247Z,9.70
2023-01-26T13:44:23.854Z,9.93
2023-01-26T13:47:00.575Z,9.35
2023-01-26T13:49:39.446Z,9.57
2023-01-26T13:52:19.137Z,10.73
2023-01-26T13:54:46.839Z,11.40
2023-01-26T13:57:26.422Z,12.70
2023-01-26T14:00:01.158Z,15.85
2023-01-26T14:02:35.557Z,11.65
2023-01-26T14:05:03.448Z,12.05
2023-01-26T14:07:42.864Z,11.18
2023-01-26T14:10:17.842Z,10.63
2023-01-26T14:12:51.926Z,11.00
2023-01-26T14:15:29.961Z,11.15
2023-01-26T14:18:01.135Z,11.95
2023-01-26T14:20:34.803Z,11.95
2023-01-26T14:23:21.211Z,35.25
2023-01-26T14:25:57.601Z,53.00
2023-01-26T14:28:29.382Z,15.02
2023-01-26T14:31:20.653Z,14.93
2023-01-26T14:33:49.153Z,14.68
2023-01-26T14:36:17.826Z,16.00
2023-01-26T14:38:50.109Z,15.88
2023-01-26T14:41:28.745Z,14.63
2023-01-26T14:43:59.828Z,17.08
2023-01-26T14:46:46.955Z,15.80
2023-01-26T14:49:22.733Z,16.58
2023-01-26T14:51:57.141Z,15.93
2023-01-26T14:54:32.595Z,15.75
2023-01-26T14:57:00.783Z,16.38
2023-01-26T14:59:35.489Z,15.88
2023-01-26T15:02:17.500Z,14.32
2023-01-26T15:04:57.534Z,16.40
2023-01-26T15:07:57.027Z,16.08
2023-01-26T15:10:43.172Z,16.02
2023-01-26T15:13:16.520Z,17.27
2023-01-26T15:15:48.860Z,16.05
2023-01-26T15:18:21.119Z,15.40
2023-01-26T15:21:03.109Z,15.38
2023-01-26T15:23:42.626Z,16.83
2023-01-26T15:26:29.689Z,16.05
2023-01-26T15:28:59.456Z,16.33
2023-01-26T15:31:34.862Z,17.55
2023-01-26T15:34:02.703Z,17.27
2023-01-26T15:36:32.861Z,18.67
2023-01-26T15:39:17.887Z,17.52
2023-01-26T15:42:14.515Z,19.67
2023-01-26T15:44:47.927Z,18.13
2023-01-26T15:47:15.148Z,19.13
2023-01-26T15:49:43.450Z,17.20
2023-01-26T15:52:14.791Z,16.73
2023-01-26T15:54:42.791Z,16.98
2023-01-26T15:57:13.903Z,15.75
2023-01-26T15:59:41.448Z,16.83
2023-01-26T16:02:15.614Z,16.70
2023-01-26T16:04:43.186Z,16.92
2023-01-26T16:07:13.920Z,17.95
2023-01-26T16:09:41.839Z,15.55
2023-01-26T16:12:30.520Z,14.00
2023-01-26T16:14:59.195Z,15.15
2023-01-26T16:17:26.646Z,14.77
2023-01-26T16:19:54.002Z,13.25
2023-01-26T16:22:23.587Z,14.13
2023-01-26T16:24:50.841Z,15.50
2023-01-26T16:27:18.308Z,14.48
2023-01-26T16:29:45.659Z,15.07
2023-01-26T16:32:28.597Z,15.30
2023-01-26T16:34:55.949Z,14.95
2023-01-26T16:37:23.361Z,15.88
2023-01-26T16:39:50.570Z,15.00
2023-01-26T16:42:19.565Z,15.38
2023-01-26T16:44:47.189Z,14.40
2023-01-26T16:47:14.813Z,15.55
2023-01-26T16:49:42.128Z,15.35
2023-01-26T16:52:10.570Z,15.52
2023-01-26T16:54:37.850Z,14.63
2023-01-26T16:57:05.264Z,15.98
2023-01-26T16:59:32.647Z,15.25
2023-01-26T17:02:00.122Z,15.93
2023-01-26T17:04:27.530Z,16.27
2023-01-26T17:06:54.796Z,15.90
2023-01-26T17:09:23.796Z,17.40
2023-01-26T17:11:51.183Z,17.70
2023-01-26T17:14:18.486Z,18.05
2023-01-26T17:16:45.969Z,17.33
2023-01-26T17:19:15.304Z,17.20
2023-01-26T17:21:42.745Z,18.33
2023-01-26T17:24:10.643Z,17.48
2023-01-26T17:26:37.962Z,17.10
2023-01-26T17:29:05.318Z,18.35
2023-01-26T17:31:32.957Z,18.13
2023-01-26T17:34:00.582Z,17.13
2023-01-26T17:36:28.226Z,17.70
2023-01-26T17:38:55.885Z,16.65
2023-01-26T17:41:23.216Z,17.95
2023-01-26T17:43:51.505Z,19.08
2023-01-26T17:46:21.644Z,18.55
2023-01-26T17:48:53.101Z,17.45
2023-01-26T17:51:21.590Z,16.52
2023-01-26T17:53:51.492Z,16.85
2023-01-26T17:56:20.835Z,16.55
2023-01-26T18:01:17.341Z,17.08
2023-01-26T18:03:44.630Z,16.98
2023-01-26T18:06:12.434Z,16.10
2023-01-26T18:08:40.227Z,16.30
2023-01-26T18:11:10.498Z,16.75
2023-01-26T18:13:38.980Z,18.10
2023-01-26T18:16:10.864Z,19.40
2023-01-26T18:18:38.200Z,18.17
2023-01-26T18:21:23.059Z,17.83
2023-01-26T18:23:59.574Z,18.52
2023-01-26T18:26:31.285Z,16.90
2023-01-26T18:28:58.661Z,20.23
2023-01-26T18:31:29.163Z,18.95
2023-01-26T18:33:57.857Z,19.27
2023-01-26T18:36:25.861Z,19.30
2023-01-26T18:38:55.674Z,17.70
2023-01-26T18:41:24.335Z,18.55
2023-01-26T18:43:53.197Z,19.40
2023-01-26T18:46:21.810Z,18.20
2023-01-26T18:48:49.632Z,17.38
2023-01-26T18:51:18.251Z,17.08
2023-01-26T18:53:45.644Z,17.98
2023-01-26T18:56:15.328Z,18.83
2023-01-26T18:58:43.029Z,18.13
2023-01-26T19:01:18.698Z,19.88
2023-01-26T19:03:47.260Z,18.73
2023-01-26T19:06:23.473Z,18.40
2023-01-26T19:08:58.466Z,18.60
2023-01-26T19:11:34.145Z,19.65
2023-01-26T19:14:04.100Z,20.42
2023-01-26T19:16:31.801Z,18.05
2023-01-26T19:18:59.160Z,19.00
2023-01-26T19:21:27.581Z,18.63
2023-01-26T19:23:57.684Z,20.53
2023-01-26T19:26:27.874Z,19.63
2023-01-26T19:28:55.411Z,19.88
2023-01-26T19:31:23.561Z,20.45
2023-01-26T19:34:04.990Z,22.42
2023-01-26T19:36:34.156Z,21.90
2023-01-26T19:39:02.769Z,20.48
2023-01-26T19:41:30.144Z,20.67
2023-01-26T19:43:57.808Z,21.95
2023-01-26T19:46:25.173Z,20.67
2023-01-26T19:48:52.471Z,23.65
2023-01-26T19:51:22.464Z,20.85
2023-01-26T19:53:52.042Z,23.38
2023-01-26T19:56:20.802Z,22.25
2023-01-26T19:58:52.435Z,20.52
2023-01-26T20:01:20.316Z,21.08
2023-01-26T20:03:57.243Z,21.33
2023-01-26T20:06:28.180Z,21.30
2023-01-26T20:08:56.400Z,20.55
2023-01-26T20:11:28.920Z,21.75
2023-01-26T20:14:08.678Z,21.15
2023-01-26T20:16:36.319Z,20.25
2023-01-26T20:19:04.562Z,20.52
2023-01-26T20:21:32.389Z,20.73
2023-01-26T20:24:05.302Z,19.23
2023-01-26T20:26:33.279Z,19.63
2023-01-26T20:29:00.732Z,21.00
2023-01-26T20:31:28.180Z,19.92
2023-01-26T20:33:55.481Z,19.08
2023-01-26T20:36:25.161Z,20.08
2023-01-26T20:38:53.043Z,19.92
2023-01-26T20:41:23.931Z,18.38
2023-01-26T20:44:01.216Z,21.00
2023-01-26T20:46:42.723Z,20.67
2023-01-26T20:49:16.479Z,22.02
2023-01-26T20:51:45.359Z,20.67
2023-01-26T20:54:14.519Z,19.17
2023-01-26T20:56:41.986Z,20.30
2023-01-26T20:59:10.431Z,19.60
2023-01-26T21:01:37.926Z,18.67
2023-01-26T21:04:05.682Z,19.50
2023-01-26T21:06:32.931Z,20.55
2023-01-26T21:09:00.676Z,20.05
2023-01-26T21:11:30.377Z,18.02
2023-01-26T21:14:00.619Z,19.10
2023-01-26T21:16:29.142Z,18.50
2023-01-26T21:18:59.490Z,20.93
2023-01-26T21:21:27.071Z,19.27
2023-01-26T21:23:54.419Z,19.60
2023-01-26T21:26:23.812Z,18.77
2023-01-26T21:31:19.312Z,19.20
2023-01-26T21:33:47.615Z,18.95
2023-01-26T21:36:17.156Z,18.63
2023-01-26T21:38:46.054Z,21.17
2023-01-26T21:41:37.081Z,21.75
2023-01-26T21:44:17.159Z,19.25
2023-01-26T21:46:49.104Z,19.55
2023-01-26T21:49:16.929Z,17.73
2023-01-26T21:52:03.203Z,18.67
2023-01-26T21:54:31.838Z,18.85
2023-01-26T21:57:27.008Z,19.75
2023-01-26T21:59:54.740Z,17.73
2023-01-26T22:02:22.903Z,19.17
2023-01-26T22:04:50.248Z,18.38
2023-01-26T22:07:17.537Z,19.17
2023-01-26T22:09:44.774Z,16.95
2023-01-26T22:12:12.046Z,17.10
2023-01-26T22:14:42.342Z,17.45
2023-01-26T22:17:09.530Z,15.70
2023-01-26T22:19:36.924Z,14.57
2023-01-26T22:22:04.361Z,15.73
2023-01-26T22:24:31.708Z,17.50
2023-01-26T22:26:58.979Z,16.48
2023-01-26T22:29:26.229Z,17.85
2023-01-26T22:31:53.738Z,16.63
2023-01-26T22:34:21.380Z,15.75
2023-01-26T22:36:48.717Z,15.00
2023-01-26T22:39:15.967Z,16.75
2023-01-26T22:41:43.629Z,17.23
2023-01-26T22:44:11.333Z,17.58
2023-01-26T22:46:49.199Z,16.20
2023-01-26T22:49:16.458Z,18.13
2023-01-26T22:51:43.674Z,16.80
2023-01-26T22:54:10.944Z,17.58
2023-01-26T22:56:38.249Z,16.85
2023-01-26T22:59:05.476Z,16.67
2023-01-26T23:01:33.488Z,17.38
2023-01-26T23:04:01.560Z,16.77
2023-01-26T23:06:29.136Z,18.15
2023-01-26T23:08:58.201Z,16.25
2023-01-26T23:11:27.456Z,15.73
2023-01-26T23:16:25.704Z,13.07
2023-01-26T23:18:54.400Z,14.25
2023-01-26T23:21:22.103Z,13.73
2023-01-26T23:23:49.544Z,15.00
2023-01-26T23:26:16.943Z,14.18
2023-01-26T23:28:44.830Z,15.30
2023-01-26T23:31:13.249Z,16.50
2023-01-26T23:33:41.250Z,15.97
2023-01-26T23:36:10.093Z,16.88
2023-01-26T23:38:37.682Z,15.90
2023-01-26T23:41:12.116Z,16.35
2023-01-26T23:43:39.715Z,16.00
2023-01-26T23:46:08.400Z,16.33
2023-01-26T23:48:35.995Z,16.30
2023-01-26T23:51:05.890Z,15.90
2023-01-26T23:53:34.059Z,16.38
2023-01-26T23:56:05.310Z,17.23
2023-01-26T23:58:32.655Z,16.92
